Check out our new BloomSky Weather System.

Active alerts


No alerts


Thunder radar  blitzortung!


Rain radar more information rain snow radar


Visit our other weather sites:

Template documentation
and downloads

And another site



Weather Underground History page Text

Daily Summary for December 8, 2017 Units:  Metric    English   Both
« Previous Day
Next Day »
Daily Weekly Monthly Yearly Custom
  High: Low: Average:
Temperature: 6.3 °C -1 °C 1.4 °C
Dew Point: 0.6 °C -2.9 °C -0.8 °C
Humidity: 98 % 56 % 87 %
Wind Speed: 9.7 km/h 0 km/h 1.8 km/h
Wind Gust: 20.9 km/h - -
Wind:- - WNW
Pressure: 1027.3 hPa 1020.5 hPa -
Precipitation: 1.52 mm    
Historical Graphs
 
 
Tabular Data for December 8, 2017
Time Temperature Dew Point Pressure Wind Wind Speed Wind Gust Humidity Rainfall Rate (Hourly)
00:00 0 °C -0.4 °C 1027.3 hPa WNW 4.8 km/h 20.9 km/h 97 % 0 mm
00:05 0 °C -0.4 °C 1027.3 hPa WNW 9.7 km/h 16.1 km/h 97 % 0 mm
00:10 -0.1 °C -0.5 °C 1027 hPa NNW 8 km/h 16.1 km/h 97 % 0 mm
00:25 -0.1 °C -0.5 °C 1027 hPa NNW 8 km/h 16.1 km/h 97 % 0 mm
00:30 -0.2 °C -0.6 °C 1027 hPa NW 3.2 km/h 16.1 km/h 97 % 0 mm
00:35 -0.2 °C -0.6 °C 1027 hPa NW 3.2 km/h 16.1 km/h 97 % 0 mm
00:41 -0.2 °C -0.6 °C 1027.3 hPa NW 1.6 km/h 11.3 km/h 97 % 0 mm
00:46 -0.2 °C -0.6 °C 1027.3 hPa North 1.6 km/h 9.7 km/h 97 % 0 mm
00:51 -0.2 °C -0.6 °C 1027.3 hPa NNW 3.2 km/h 9.7 km/h 97 % 0 mm
01:01 -0.2 °C -0.6 °C 1026.6 hPa NNW 3.2 km/h 11.3 km/h 97 % 0 mm
01:06 -0.3 °C -0.7 °C 1027 hPa NNW 3.2 km/h 11.3 km/h 97 % 0 mm
01:11 -0.3 °C -0.7 °C 1026.6 hPa North 9.7 km/h 11.3 km/h 97 % 0 mm
01:16 -0.3 °C -0.7 °C 1026.3 hPa NW 4.8 km/h 11.3 km/h 97 % 0 mm
01:21 -0.3 °C -0.6 °C 1026.3 hPa NNW 8 km/h 11.3 km/h 98 % 0 mm
01:36 -0.3 °C -0.6 °C 1026 hPa Calm   8 km/h 98 % 0 mm
01:41 -0.3 °C -0.6 °C 1026 hPa Calm   8 km/h 98 % 0 mm
01:46 -0.3 °C -0.6 °C 1026.3 hPa North 1.6 km/h 8 km/h 98 % 0 mm
01:51 -0.3 °C -0.6 °C 1026 hPa Calm   8 km/h 98 % 0 mm
01:56 -0.3 °C -0.6 °C 1026 hPa Calm   8 km/h 98 % 0 mm
02:01 -0.3 °C -0.6 °C 1026 hPa Calm   6.4 km/h 98 % 0 mm
02:06 -0.3 °C -0.6 °C 1025.6 hPa NW 1.6 km/h 6.4 km/h 98 % 0 mm
02:11 -0.3 °C -0.6 °C 1026 hPa Calm   3.2 km/h 98 % 0 mm
02:29 -0.2 °C -0.5 °C 1026 hPa NNW 6.4 km/h 9.7 km/h 98 % 0 mm
02:34 -0.3 °C -0.6 °C 1026 hPa NW 1.6 km/h 12.9 km/h 98 % 0 mm
02:39 -0.3 °C -0.6 °C 1026 hPa NW 1.6 km/h 12.9 km/h 98 % 0 mm
02:44 -0.3 °C -0.6 °C 1026.3 hPa NNE 4.8 km/h 12.9 km/h 98 % 0 mm
02:54 -0.4 °C -0.7 °C 1026 hPa Calm   12.9 km/h 98 % 0 mm
02:59 -0.4 °C -0.7 °C 1026 hPa NW 1.6 km/h 12.9 km/h 98 % 0 mm
03:00 -0.4 °C -0.7 °C 1026 hPa Calm   12.9 km/h 98 % 0 mm
03:05 -0.4 °C -0.7 °C 1026 hPa NNW 3.2 km/h 9.7 km/h 98 % 0 mm
03:10 -0.4 °C -0.7 °C 1026 hPa Calm   9.7 km/h 98 % 0 mm
03:15 -0.4 °C -0.7 °C 1026 hPa Calm   6.4 km/h 98 % 0 mm
03:58 -0.6 °C -0.9 °C 1024.9 hPa Calm   1.6 km/h 98 % 0 mm
04:03 -0.6 °C -0.9 °C 1024.9 hPa Calm   1.6 km/h 98 % 0 mm
04:08 -0.6 °C -0.9 °C 1024.9 hPa Calm   1.6 km/h 98 % 0 mm
04:13 -0.6 °C -0.9 °C 1024.9 hPa Calm   1.6 km/h 98 % 0 mm
04:18 -0.6 °C -0.9 °C 1024.9 hPa Calm     98 % 0 mm
04:28 -0.6 °C -0.9 °C 1024.9 hPa Calm     98 % 0 mm
04:33 -0.6 °C -0.9 °C 1024.9 hPa Calm     98 % 0 mm
04:38 -0.6 °C -0.9 °C 1024.9 hPa Calm     98 % 0 mm
04:43 -0.6 °C -0.9 °C 1024.6 hPa Calm     98 % 0 mm
04:53 -0.5 °C -0.8 °C 1024.6 hPa Calm     98 % 0 mm
05:03 -0.4 °C -0.7 °C 1024.6 hPa Calm     98 % 0 mm
05:08 -0.4 °C -0.7 °C 1024.3 hPa Calm     98 % 0 mm
05:18 -0.3 °C -0.6 °C 1024.3 hPa Calm     98 % 0 mm
05:23 -0.3 °C -0.6 °C 1023.9 hPa Calm     98 % 0 mm
05:33 -0.2 °C -0.5 °C 1023.9 hPa Calm   1.6 km/h 98 % 0 mm
05:43 -0.1 °C -0.4 °C 1023.9 hPa North 1.6 km/h 1.6 km/h 98 % 0 mm
05:48 -0.1 °C -0.4 °C 1024.3 hPa Calm   1.6 km/h 98 % 0 mm
05:53 -0.1 °C -0.4 °C 1024.6 hPa NW 1.6 km/h 1.6 km/h 98 % 0 mm
05:58 0 °C -0.3 °C 1024.3 hPa Calm   3.2 km/h 98 % 0 mm
06:03 0 °C -0.3 °C 1024.3 hPa NNW 1.6 km/h 3.2 km/h 98 % 0 mm
06:09 0 °C -0.3 °C 1024.3 hPa Calm   3.2 km/h 98 % 0 mm
06:14 0 °C -0.3 °C 1024.3 hPa NNW 1.6 km/h 3.2 km/h 98 % 0 mm
06:24 0.1 °C -0.2 °C 1023.9 hPa NNW 1.6 km/h 3.2 km/h 98 % 0 mm
06:29 0.1 °C -0.2 °C 1023.9 hPa Calm   3.2 km/h 98 % 0 mm
06:34 0.1 °C -0.2 °C 1024.3 hPa Calm   3.2 km/h 98 % 0 mm
06:39 0.1 °C -0.2 °C 1024.6 hPa Calm   3.2 km/h 98 % 0 mm
06:44 0.1 °C -0.2 °C 1024.3 hPa Calm   3.2 km/h 98 % 0 mm
06:49 0.1 °C -0.2 °C 1024.3 hPa NNW 3.2 km/h 3.2 km/h 98 % 0 mm
06:54 0.1 °C -0.2 °C 1024.3 hPa NNW 1.6 km/h 3.2 km/h 98 % 0 mm
06:59 0.1 °C -0.2 °C 1024.9 hPa Calm   3.2 km/h 98 % 0 mm
07:08 0.1 °C -0.2 °C 1024.9 hPa NNW 1.6 km/h 3.2 km/h 98 % 0 mm
07:13 0.1 °C -0.2 °C 1024.6 hPa NNW 3.2 km/h 3.2 km/h 98 % 0 mm
07:23 0.1 °C -0.2 °C 1024.6 hPa WNW 1.6 km/h 4.8 km/h 98 % 0 mm
07:38 0.1 °C -0.2 °C 1024.9 hPa North 3.2 km/h 4.8 km/h 98 % 0 mm
07:48 0.2 °C -0.1 °C 1024.6 hPa North 1.6 km/h 4.8 km/h 98 % 0 mm
07:58 0.2 °C -0.1 °C 1024.9 hPa Calm   6.4 km/h 98 % 0 mm
08:03 0.2 °C -0.1 °C 1024.9 hPa NW 3.2 km/h 6.4 km/h 98 % 0 mm
08:08 0.2 °C -0.1 °C 1024.9 hPa NNW 1.6 km/h 8 km/h 98 % 0 mm
08:13 0.2 °C -0.1 °C 1024.9 hPa NW 4.8 km/h 8 km/h 98 % 0 mm
08:18 0.2 °C -0.1 °C 1024.9 hPa Calm   8 km/h 98 % 0 mm
08:23 0.2 °C -0.1 °C 1024.9 hPa NW 1.6 km/h 8 km/h 98 % 0 mm
08:28 0.3 °C 0 °C 1025.3 hPa Calm   8 km/h 98 % 0 mm
08:38 0.4 °C 0.1 °C 1024.9 hPa Calm   6.4 km/h 98 % 0 mm
08:43 0.4 °C 0.1 °C 1024.9 hPa NNW 8 km/h 8 km/h 98 % 0 mm
08:48 0.4 °C 0 °C 1024.9 hPa NNW 6.4 km/h 8 km/h 97 % 0 mm
08:58 0.4 °C 0 °C 1024.9 hPa NW 4.8 km/h 9.7 km/h 97 % 0 mm
09:03 0.4 °C 0 °C 1024.9 hPa NW 1.6 km/h 9.7 km/h 97 % 0 mm
09:08 0.4 °C 0 °C 1024.9 hPa NNW 1.6 km/h 8 km/h 97 % 0 mm
09:18 0.6 °C 0.2 °C 1025.3 hPa NNW 1.6 km/h 11.3 km/h 97 % 0 mm
09:23 0.6 °C 0 °C 1025.3 hPa NNW 3.2 km/h 11.3 km/h 96 % 0 mm
09:28 0.6 °C 0 °C 1024.9 hPa NNW 3.2 km/h 11.3 km/h 96 % 0 mm
09:33 0.7 °C 0.1 °C 1024.9 hPa NNW 1.6 km/h 11.3 km/h 96 % 0 mm
09:44 0.8 °C 0.1 °C 1024.9 hPa NNW 6.4 km/h 6.4 km/h 95 % 0 mm
09:49 0.8 °C 0.1 °C 1025.3 hPa Calm   6.4 km/h 95 % 0 mm
09:54 0.8 °C -0.1 °C 1025.3 hPa NNW 1.6 km/h 8 km/h 94 % 0 mm
09:59 0.8 °C -0.1 °C 1025.3 hPa NW 1.6 km/h 9.7 km/h 94 % 0 mm
10:04 0.9 °C -0.1 °C 1024.9 hPa NW 6.4 km/h 9.7 km/h 93 % 0 mm
10:09 0.9 °C -0.1 °C 1024.9 hPa NW 6.4 km/h 9.7 km/h 93 % 0 mm
10:15 1 °C -0.2 °C 1024.6 hPa NW 6.4 km/h 9.7 km/h 92 % 0 mm
10:25 1.3 °C 0 °C 1024.6 hPa Calm   12.9 km/h 91 % 0 mm
10:30 1.3 °C -0.3 °C 1024.9 hPa NW 3.2 km/h 9.7 km/h 89 % 0 mm
10:40 1.4 °C -0.4 °C 1024.9 hPa NW 1.6 km/h 9.7 km/h 88 % 0 mm
10:50 1.4 °C -0.7 °C 1024.3 hPa NNE 8 km/h 12.9 km/h 86 % 0 mm
10:51 1.5 °C -0.6 °C 1024.3 hPa NNW 3.2 km/h 12.9 km/h 86 % 0 mm
11:01 1.8 °C -0.6 °C 1024.3 hPa NNW 4.8 km/h 12.9 km/h 84 % 0 mm
11:06 1.8 °C -0.9 °C 1024.3 hPa WNW 4.8 km/h 12.9 km/h 82 % 0 mm
11:11 1.9 °C -1 °C 1024.3 hPa NNE 6.4 km/h 12.9 km/h 81 % 0 mm
11:16 2 °C -0.9 °C 1023.9 hPa NNW 3.2 km/h 12.9 km/h 81 % 0 mm
11:21 2.1 °C -1.5 °C 1024.6 hPa NNW 4.8 km/h 12.9 km/h 77 % 0 mm
11:26 2.2 °C -0.9 °C 1024.6 hPa NNW 3.2 km/h 12.9 km/h 80 % 0 mm
11:31 2.3 °C -1 °C 1024.3 hPa NW 3.2 km/h 14.5 km/h 79 % 0 mm
11:36 2.4 °C -1.2 °C 1023.9 hPa NW 6.4 km/h 14.5 km/h 77 % 0 mm
11:41 2.6 °C -1.6 °C 1023.9 hPa NW 4.8 km/h 14.5 km/h 74 % 0 mm
11:43 2.6 °C -1.4 °C 1023.9 hPa NNW 4.8 km/h 14.5 km/h 75 % 0 mm
11:48 2.7 °C -1.5 °C 1023.6 hPa NNW 6.4 km/h 14.5 km/h 74 % 0 mm
11:53 2.8 °C -1.2 °C 1023.6 hPa NNW 3.2 km/h 11.3 km/h 75 % 0.25 mm
11:58 2.9 °C -1.6 °C 1023.9 hPa Calm   11.3 km/h 72 % 0.25 mm
12:03 2.9 °C -1.6 °C 1023.9 hPa North 4.8 km/h 9.7 km/h 72 % 0.25 mm
12:08 2.9 °C -1.8 °C 1023.9 hPa NNW 4.8 km/h 12.9 km/h 71 % 0.25 mm
12:13 3 °C -1.2 °C 1023.9 hPa West 1.6 km/h 12.9 km/h 74 % 0.25 mm
12:18 3.2 °C -1.2 °C 1023.6 hPa NW 8 km/h 12.9 km/h 73 % 0.51 mm
12:23 3.1 °C -1.5 °C 1023.2 hPa Calm   12.9 km/h 72 % 0.51 mm
12:28 3.1 °C -1.8 °C 1023.2 hPa North 4.8 km/h 12.9 km/h 70 % 0.51 mm
12:33 3 °C -1.6 °C 1023.2 hPa NW 3.2 km/h 12.9 km/h 72 % 0.51 mm
12:38 3.1 °C -1.6 °C 1023.2 hPa Calm   11.3 km/h 71 % 0.76 mm
12:48 3.2 °C -1.7 °C 1022.9 hPa NE 1.6 km/h 8 km/h 70 % 0.76 mm
12:53 3.2 °C -1.9 °C 1023.2 hPa Calm   9.7 km/h 69 % 0.51 mm
13:08 3.3 °C -2.9 °C 1022.2 hPa NNW 3.2 km/h 11.3 km/h 64 % 0.76 mm
13:13 3.6 °C -2 °C 1021.9 hPa NW 3.2 km/h 11.3 km/h 67 % 0.76 mm
13:23 4 °C -1.8 °C 1022.2 hPa NNW 9.7 km/h 9.7 km/h 66 % 0.76 mm
13:28 3.9 °C -2.1 °C 1021.9 hPa NNW 4.8 km/h 9.7 km/h 65 % 0.76 mm
13:34 4.1 °C -1.7 °C 1021.9 hPa NNW 3.2 km/h 9.7 km/h 66 % 0.76 mm
13:39 4.1 °C -2.5 °C 1021.9 hPa NNW 4.8 km/h 9.7 km/h 62 % 0.51 mm
13:44 4.1 °C -1.9 °C 1021.6 hPa Calm   9.7 km/h 65 % 0.51 mm
13:49 4.3 °C -1.9 °C 1021.6 hPa Calm   9.7 km/h 64 % 0.51 mm
13:54 4.1 °C -1.7 °C 1021.6 hPa North 1.6 km/h 9.7 km/h 66 % 0.76 mm
13:59 3.6 °C -1.8 °C 1021.2 hPa WNW 8 km/h 11.3 km/h 68 % 0.51 mm
14:04 3.4 °C -1.4 °C 1021.2 hPa NW 4.8 km/h 12.9 km/h 71 % 0.51 mm
14:09 3.4 °C -1.4 °C 1021.2 hPa NNW 1.6 km/h 12.9 km/h 71 % 0.51 mm
14:14 3.6 °C -0.2 °C 1021.2 hPa Calm   12.9 km/h 76 % 0.51 mm
14:19 3.7 °C -1.1 °C 1021.6 hPa North 8 km/h 9.7 km/h 71 % 0.51 mm
14:24 3.6 °C -0.8 °C 1020.9 hPa NW 8 km/h 9.7 km/h 73 % 0.25 mm
14:29 3.6 °C -0.6 °C 1021.2 hPa North 1.6 km/h 11.3 km/h 74 % 0.25 mm
14:34 3.8 °C 0 °C 1021.6 hPa West 1.6 km/h 12.9 km/h 76 % 0.25 mm
14:44 4.2 °C 0.2 °C 1021.6 hPa NNE 3.2 km/h 12.9 km/h 75 % 0.25 mm
14:49 4.7 °C 0.6 °C 1020.9 hPa Calm   11.3 km/h 75 % 0.25 mm
14:54 5.1 °C -0.5 °C 1021.2 hPa NNW 3.2 km/h 8 km/h 67 % 0 mm
14:59 5.5 °C -1 °C 1021.6 hPa Calm   9.7 km/h 63 % 0 mm
15:05 5.8 °C -0.9 °C 1021.2 hPa NNW 1.6 km/h 11.3 km/h 62 % 0 mm
15:10 6.1 °C -0.4 °C 1021.2 hPa West 1.6 km/h 11.3 km/h 63 % 0 mm
15:15 6.2 °C -0.5 °C 1021.2 hPa West 3.2 km/h 11.3 km/h 62 % 0 mm
15:25 6.2 °C -1 °C 1020.5 hPa NNW 3.2 km/h 9.7 km/h 60 % 0 mm
15:36 6.1 °C -0.9 °C 1020.5 hPa Calm   9.7 km/h 61 % 0 mm
15:40 6.2 °C -1 °C 1020.9 hPa NNW 3.2 km/h 9.7 km/h 60 % 0 mm
16:06 6.2 °C -1.5 °C 1020.9 hPa NW 3.2 km/h 9.7 km/h 58 % 0 mm
16:11 6.2 °C -1.5 °C 1020.9 hPa Calm   9.7 km/h 58 % 0 mm
16:16 6.2 °C -1.5 °C 1020.5 hPa NNW 4.8 km/h 9.7 km/h 58 % 0 mm
16:21 6.2 °C -1.5 °C 1020.5 hPa NNW 4.8 km/h 9.7 km/h 58 % 0 mm
16:26 6.2 °C -1.5 °C 1020.9 hPa West 3.2 km/h 11.3 km/h 58 % 0 mm
16:31 6.3 °C -1.6 °C 1020.9 hPa WNW 6.4 km/h 11.3 km/h 57 % 0 mm
16:41 6.2 °C -1.9 °C 1020.5 hPa NW 1.6 km/h 9.7 km/h 56 % 0 mm
16:46 6.1 °C -1.8 °C 1020.5 hPa NW 1.6 km/h 9.7 km/h 57 % 0 mm
16:51 6 °C -1.9 °C 1020.5 hPa Calm   8 km/h 57 % 0 mm
16:56 5.9 °C -1.7 °C 1020.5 hPa Calm   6.4 km/h 58 % 0 mm
17:01 5.7 °C -1.9 °C 1020.9 hPa Calm   6.4 km/h 58 % 0 mm
17:07 5.5 °C -1.2 °C 1020.9 hPa Calm   1.6 km/h 62 % 0 mm
17:12 5.3 °C -1.2 °C 1020.9 hPa Calm   1.6 km/h 63 % 0 mm
17:17 5 °C -1 °C 1020.9 hPa Calm   1.6 km/h 65 % 0 mm
17:22 4.8 °C -1 °C 1021.2 hPa Calm   1.6 km/h 66 % 0 mm
17:27 4.6 °C -0.8 °C 1021.2 hPa Calm   1.6 km/h 68 % 0 mm
17:32 4.3 °C -0.9 °C 1021.6 hPa Calm     69 % 0 mm
17:37 3.9 °C -1.3 °C 1021.6 hPa Calm     69 % 0 mm
17:42 3.6 °C -1.2 °C 1021.6 hPa Calm     71 % 0 mm
17:47 3.3 °C -1.1 °C 1021.6 hPa Calm     73 % 0 mm
17:52 3.3 °C -0.3 °C 1021.6 hPa Calm     77 % 0 mm
17:57 3.2 °C -0.3 °C 1021.6 hPa Calm     78 % 0 mm
18:07 2.8 °C -0.1 °C 1021.6 hPa Calm   1.6 km/h 81 % 0 mm
18:12 2.6 °C -0.3 °C 1021.6 hPa Calm   1.6 km/h 81 % 0 mm
18:32 1.7 °C -0.6 °C 1021.6 hPa Calm     85 % 0 mm
18:37 1.6 °C -0.6 °C 1021.9 hPa Calm     85 % 0 mm
18:42 1.5 °C -0.6 °C 1021.9 hPa Calm     86 % 0 mm
18:47 1.5 °C -0.4 °C 1021.9 hPa Calm     87 % 0 mm
18:52 1.6 °C -0.2 °C 1022.2 hPa Calm     88 % 0 mm
19:03 1.6 °C -0.3 °C 1022.2 hPa Calm     87 % 0 mm
19:08 1.4 °C -0.5 °C 1022.2 hPa Calm     87 % 0 mm
19:13 1.1 °C -0.8 °C 1022.2 hPa Calm     87 % 0 mm
19:18 0.9 °C -1 °C 1022.2 hPa Calm     87 % 0 mm
19:23 0.8 °C -1 °C 1022.6 hPa Calm     88 % 0 mm
19:28 0.9 °C -0.7 °C 1022.2 hPa Calm     89 % 0 mm
19:33 0.9 °C -0.7 °C 1022.6 hPa Calm     89 % 0 mm
19:38 0.8 °C -1 °C 1022.6 hPa Calm     88 % 0 mm
19:43 0.7 °C -1.1 °C 1022.9 hPa Calm     88 % 0 mm
19:53 0.3 °C -1.3 °C 1022.9 hPa Calm     89 % 0 mm
19:58 0.4 °C -1 °C 1022.9 hPa Calm     90 % 0 mm
20:08 0.5 °C -0.8 °C 1022.9 hPa Calm     91 % 0 mm
20:13 0.5 °C -0.8 °C 1022.9 hPa Calm     91 % 0 mm
20:23 0.3 °C -1 °C 1023.2 hPa Calm     91 % 0 mm
20:28 0.2 °C -1.1 °C 1023.2 hPa Calm     91 % 0 mm
20:33 0.2 °C -1.1 °C 1023.2 hPa Calm     91 % 0 mm
20:38 0.2 °C -0.9 °C 1023.2 hPa Calm     92 % 0 mm
20:43 0.2 °C -0.9 °C 1023.2 hPa Calm     92 % 0 mm
20:48 0.2 °C -0.9 °C 1023.2 hPa Calm     92 % 0 mm
20:53 0.2 °C -0.9 °C 1023.2 hPa Calm     92 % 0 mm
20:58 0.1 °C -1 °C 1023.2 hPa Calm     92 % 0 mm
21:03 0.1 °C -1 °C 1023.2 hPa Calm     92 % 0 mm
21:08 0.3 °C -0.7 °C 1023.2 hPa Calm     93 % 0 mm
21:15 0.4 °C -0.6 °C 1023.2 hPa Calm     93 % 0 mm
21:20 0.3 °C -0.7 °C 1023.2 hPa Calm     93 % 0 mm
21:25 0.2 °C -0.8 °C 1023.2 hPa Calm     93 % 0 mm
21:30 0 °C -1 °C 1023.2 hPa Calm     93 % 0 mm
21:32 -0.1 °C -1.1 °C 1023.2 hPa Calm     93 % 0 mm
21:42 -0.1 °C -1.1 °C 1023.2 hPa Calm     93 % 0 mm
21:46 -0.2 °C -1.2 °C 1023.2 hPa Calm     93 % 0 mm
21:51 -0.3 °C -1.3 °C 1023.2 hPa Calm     93 % 0 mm
22:01 -0.6 °C -1.4 °C 1023.2 hPa Calm     94 % 0 mm
22:06 -0.7 °C -1.5 °C 1023.2 hPa Calm     94 % 0 mm
22:16 -0.9 °C -1.7 °C 1022.9 hPa Calm     94 % 0 mm
22:21 -1 °C -1.8 °C 1022.9 hPa Calm     94 % 0 mm
22:26 -1 °C -1.8 °C 1022.9 hPa Calm     94 % 0 mm
22:37 -0.8 °C -1.6 °C 1022.9 hPa Calm     94 % 0 mm
22:42 -0.6 °C -1.3 °C 1022.9 hPa Calm     95 % 0 mm
22:47 -0.4 °C -1.1 °C 1023.2 hPa Calm     95 % 0 mm
22:52 -0.3 °C -1 °C 1023.2 hPa Calm     95 % 0 mm
22:57 -0.4 °C -1.1 °C 1023.2 hPa Calm     95 % 0 mm
23:02 -0.4 °C -1.1 °C 1023.2 hPa Calm     95 % 0 mm
23:07 -0.4 °C -1.1 °C 1022.9 hPa Calm     95 % 0 mm
23:12 -0.5 °C -1.2 °C 1022.9 hPa Calm     95 % 0 mm
23:17 -0.5 °C -1.2 °C 1023.2 hPa Calm     95 % 0 mm
23:22 -0.4 °C -1.1 °C 1022.9 hPa Calm     95 % 0 mm
23:27 -0.4 °C -1.1 °C 1022.9 hPa Calm     95 % 0 mm
23:37 -0.6 °C -1.3 °C 1022.9 hPa Calm     95 % 0 mm
23:42 -0.6 °C -1.3 °C 1022.9 hPa Calm     95 % 0 mm
23:47 -0.6 °C -1.3 °C 1022.9 hPa Calm     95 % 0 mm
23:52 -0.6 °C -1.3 °C 1022.9 hPa Calm     95 % 0 mm
23:57 -0.6 °C -1.3 °C 1022.9 hPa Calm     95 % 0 mm
Spring, Texas: Villages of Bridgestone
Compliments of Weather Underground - 2.5 mb

Script developed by  Jim McMurry - jmcmurry@mwt.net Adapted for the template by  Wim van der Kuil - Leuven-Template.eu

You find our weather info also at:

UK Metoffice

WeatherCloud

Weather Underground

Mid-South Weather Network

AWEKAS

Citizen Weather Observer Program (CWOP)

HAMweather, WeatherForYou, PWS Weather

Equipment we use:

Weather-station
Davis Vantage Vue

Weather-program
Meteohub

Weather-server
Debian 7.9 x86 (Guest)

Provider
DreamHost

Davis Vantage Vue

Meteohub

Debian 7.9 x86 (Guest)

DreamHost